createdAt,value
2018-12-22T00:02:11.787Z,8.27
2018-12-22T00:04:40.988Z,8.23
2018-12-22T00:07:11.089Z,8.21
2018-12-22T00:09:41.456Z,8.17
2018-12-22T00:12:11.345Z,8.16
2018-12-22T00:14:40.445Z,8.15
2018-12-22T00:17:09.555Z,8.14
2018-12-22T00:19:38.786Z,8.10
2018-12-22T00:22:07.831Z,8.04
2018-12-22T00:24:36.915Z,8.02
2018-12-22T00:27:06.012Z,8.08
2018-12-22T00:29:35.089Z,8.02
2018-12-22T00:32:04.129Z,8.03
2018-12-22T00:34:33.213Z,8.03
2018-12-22T00:37:02.266Z,8.00
2018-12-22T00:39:31.319Z,8.00
2018-12-22T00:42:00.395Z,8.00
2018-12-22T00:44:29.599Z,8.00
2018-12-22T00:46:58.638Z,7.99
2018-12-22T00:49:27.713Z,7.95
2018-12-22T00:51:56.770Z,7.96
2018-12-22T00:54:25.845Z,7.98
2018-12-22T00:56:54.922Z,7.91
2018-12-22T00:59:24.146Z,7.92
2018-12-22T01:01:53.179Z,7.90
2018-12-22T01:04:22.370Z,7.88
2018-12-22T01:06:52.724Z,7.89
2018-12-22T01:09:22.316Z,7.86
2018-12-22T01:11:51.360Z,7.81
2018-12-22T01:14:20.550Z,7.80
2018-12-22T01:16:49.676Z,7.78
2018-12-22T01:19:18.759Z,7.81
2018-12-22T01:21:47.784Z,7.83
2018-12-22T01:24:16.887Z,7.81
2018-12-22T01:26:46.126Z,7.79
2018-12-22T01:29:16.094Z,7.78
2018-12-22T01:31:46.266Z,7.79
2018-12-22T01:34:16.384Z,7.79
2018-12-22T01:36:46.744Z,7.77
2018-12-22T01:39:16.492Z,7.72
2018-12-22T01:41:46.913Z,7.77
2018-12-22T01:44:16.537Z,7.77
2018-12-22T01:46:47.521Z,7.74
2018-12-22T01:49:16.838Z,7.75
2018-12-22T01:51:47.382Z,7.72
2018-12-22T01:54:17.070Z,7.72
2018-12-22T01:56:47.187Z,7.70
2018-12-22T01:59:17.227Z,7.68
2018-12-22T02:01:47.376Z,7.65
2018-12-22T02:04:17.488Z,7.65
2018-12-22T02:06:47.579Z,7.65
2018-12-22T02:09:17.728Z,7.62
2018-12-22T02:11:47.853Z,7.57
2018-12-22T02:14:17.956Z,7.55
2018-12-22T02:16:48.057Z,7.54
2018-12-22T02:19:18.344Z,7.54
2018-12-22T02:21:48.290Z,7.52
2018-12-22T02:24:18.454Z,7.51
2018-12-22T02:26:48.562Z,7.46
2018-12-22T02:29:18.699Z,7.46
2018-12-22T02:31:48.842Z,7.49
2018-12-22T02:34:18.944Z,7.37
2018-12-22T02:36:48.932Z,7.37
2018-12-22T02:39:18.027Z,7.26
2018-12-22T02:41:47.198Z,7.28
2018-12-22T02:44:16.250Z,7.27
2018-12-22T02:46:45.490Z,7.26
2018-12-22T02:49:14.523Z,7.18
2018-12-22T02:51:43.622Z,7.14
2018-12-22T02:54:12.711Z,7.12
2018-12-22T02:56:42.001Z,7.06
2018-12-22T02:59:11.036Z,7.09
2018-12-22T03:01:40.253Z,7.00
2018-12-22T03:04:09.344Z,6.98
2018-12-22T03:06:38.394Z,7.02
2018-12-22T03:09:07.686Z,6.90
2018-12-22T03:11:36.765Z,6.84
2018-12-22T03:14:05.791Z,6.88
2018-12-22T03:16:34.870Z,6.92
2018-12-22T03:19:03.913Z,7.01
2018-12-22T03:21:32.973Z,6.95
2018-12-22T03:24:02.107Z,6.94
2018-12-22T03:26:31.267Z,6.88
2018-12-22T03:29:00.338Z,6.85
2018-12-22T03:31:29.444Z,6.90
2018-12-22T03:33:58.510Z,6.85
2018-12-22T03:36:27.600Z,6.85
2018-12-22T03:38:56.687Z,6.92
2018-12-22T03:41:25.736Z,6.85
2018-12-22T03:43:54.781Z,6.90
2018-12-22T03:46:23.908Z,6.86
2018-12-22T03:48:52.948Z,6.92
2018-12-22T03:51:22.630Z,6.93
2018-12-22T03:53:51.717Z,6.86
2018-12-22T03:56:20.767Z,6.89
2018-12-22T03:58:49.803Z,6.94
2018-12-22T04:01:18.929Z,6.86
2018-12-22T04:03:48.027Z,6.92
2018-12-22T04:06:17.105Z,6.93
2018-12-22T04:08:46.294Z,6.90
2018-12-22T04:11:15.334Z,6.93
2018-12-22T04:13:44.374Z,6.99
2018-12-22T04:16:13.469Z,7.02
2018-12-22T04:18:42.717Z,6.97
2018-12-22T04:21:11.742Z,6.94
2018-12-22T04:23:40.928Z,6.96
2018-12-22T04:26:10.045Z,6.96
2018-12-22T04:28:39.069Z,6.92
2018-12-22T04:31:08.159Z,6.92
2018-12-22T04:33:37.188Z,6.89
2018-12-22T04:36:06.224Z,6.92
2018-12-22T04:38:35.296Z,6.89
2018-12-22T04:41:04.432Z,6.89
2018-12-22T04:43:33.475Z,6.81
2018-12-22T04:46:02.577Z,6.87
2018-12-22T04:48:31.630Z,6.85
2018-12-22T04:51:00.649Z,6.83
2018-12-22T04:53:29.746Z,6.79
2018-12-22T04:55:58.790Z,6.78
2018-12-22T04:58:27.813Z,6.80
2018-12-22T05:00:56.909Z,6.78
2018-12-22T05:03:26.933Z,6.75
2018-12-22T05:08:36.187Z,6.63
2018-12-22T05:11:05.279Z,6.60
2018-12-22T05:13:34.537Z,6.67
2018-12-22T05:16:03.837Z,6.75
2018-12-22T05:18:33.068Z,6.70
2018-12-22T05:21:02.124Z,6.64
2018-12-22T05:23:31.304Z,6.64
2018-12-22T05:26:00.417Z,6.58
2018-12-22T05:28:29.457Z,6.58
2018-12-22T05:30:58.461Z,6.68
2018-12-22T05:33:28.305Z,6.59
2018-12-22T05:35:58.321Z,6.63
2018-12-22T05:43:26.396Z,6.59
2018-12-22T05:45:55.443Z,6.57
2018-12-22T05:48:24.487Z,6.58
2018-12-22T05:50:53.575Z,6.56
2018-12-22T05:53:22.664Z,6.62
2018-12-22T05:55:51.711Z,6.56
2018-12-22T05:58:20.945Z,6.56
2018-12-22T06:00:50.029Z,6.62
2018-12-22T06:03:19.125Z,6.57
2018-12-22T06:05:48.500Z,6.53
2018-12-22T06:08:17.558Z,6.57
2018-12-22T06:10:46.835Z,6.55
2018-12-22T06:13:16.758Z,6.54
2018-12-22T06:15:46.049Z,6.51
2018-12-22T06:18:15.110Z,6.50
2018-12-22T06:20:49.817Z,6.47
2018-12-22T06:23:18.933Z,6.50
2018-12-22T06:25:48.275Z,6.54
2018-12-22T06:28:17.572Z,6.55
2018-12-22T06:30:46.893Z,6.49
2018-12-22T06:33:16.022Z,6.50
2018-12-22T06:35:45.427Z,6.47
2018-12-22T06:38:14.529Z,6.46
2018-12-22T06:40:43.689Z,6.50
2018-12-22T06:43:12.991Z,6.47
2018-12-22T06:45:42.138Z,6.42
2018-12-22T06:48:11.598Z,6.39
2018-12-22T06:50:41.581Z,6.38
2018-12-22T06:53:11.880Z,6.39
2018-12-22T06:55:41.941Z,6.38
2018-12-22T06:58:11.948Z,6.32
2018-12-22T07:00:42.010Z,6.28
2018-12-22T07:03:11.111Z,6.26
2018-12-22T07:05:40.397Z,6.25
2018-12-22T07:08:09.422Z,6.23
2018-12-22T07:10:38.807Z,6.19
2018-12-22T07:13:08.338Z,6.21
2018-12-22T07:15:37.551Z,6.21
2018-12-22T07:18:06.783Z,6.19
2018-12-22T07:20:35.822Z,6.18
2018-12-22T07:23:05.055Z,6.20
2018-12-22T07:25:34.132Z,6.17
2018-12-22T07:28:03.227Z,6.19
2018-12-22T07:30:32.323Z,6.17
2018-12-22T07:33:01.460Z,6.17
2018-12-22T07:35:30.569Z,6.17
2018-12-22T07:37:59.675Z,6.16
2018-12-22T07:40:28.741Z,6.16
2018-12-22T07:42:59.137Z,6.17
2018-12-22T07:45:28.385Z,6.18
2018-12-22T07:47:57.511Z,6.17
2018-12-22T07:50:26.762Z,6.16
2018-12-22T07:52:55.923Z,6.20
2018-12-22T07:55:25.052Z,6.20
2018-12-22T07:57:54.135Z,6.21
2018-12-22T08:00:23.273Z,6.24
2018-12-22T08:02:52.544Z,6.23
2018-12-22T08:05:21.600Z,6.27
2018-12-22T08:07:50.838Z,6.21
2018-12-22T08:10:20.265Z,6.21
2018-12-22T08:12:49.342Z,6.27
2018-12-22T08:15:18.474Z,6.30
2018-12-22T08:17:47.990Z,6.33
2018-12-22T08:20:18.140Z,6.35
2018-12-22T08:22:48.102Z,6.37
2018-12-22T08:25:18.144Z,6.36
2018-12-22T08:27:48.474Z,6.41
2018-12-22T08:30:18.320Z,6.40
2018-12-22T08:32:48.443Z,6.41
2018-12-22T08:35:18.529Z,6.42
2018-12-22T08:37:48.956Z,6.44
2018-12-22T08:40:19.086Z,6.46
2018-12-22T08:42:49.108Z,6.44
2018-12-22T08:45:19.445Z,6.45
2018-12-22T08:47:49.644Z,6.45
2018-12-22T08:50:19.615Z,6.51
2018-12-22T08:52:49.611Z,6.51
2018-12-22T08:55:20.500Z,6.52
2018-12-22T08:57:52.012Z,6.57
2018-12-22T09:03:00.912Z,6.58
2018-12-22T09:05:30.289Z,6.59
2018-12-22T09:07:59.686Z,6.63
2018-12-22T09:10:28.949Z,6.65
2018-12-22T09:12:58.623Z,6.65
2018-12-22T09:15:28.592Z,6.63
2018-12-22T09:17:58.018Z,6.65
2018-12-22T09:20:27.499Z,6.70
2018-12-22T09:22:57.137Z,6.71
2018-12-22T09:25:26.523Z,6.72
2018-12-22T09:27:55.855Z,6.73
2018-12-22T09:30:25.272Z,6.73
2018-12-22T09:32:54.722Z,6.74
2018-12-22T09:35:24.114Z,6.76
2018-12-22T09:37:53.426Z,6.79
2018-12-22T09:40:22.834Z,6.80
2018-12-22T09:42:52.130Z,6.81
2018-12-22T09:45:21.738Z,6.82
2018-12-22T09:47:50.866Z,6.85
2018-12-22T09:50:20.071Z,6.87
2018-12-22T09:52:49.383Z,6.87
2018-12-22T09:55:18.591Z,6.93
2018-12-22T09:57:47.744Z,6.95
2018-12-22T10:00:17.068Z,6.94
2018-12-22T10:02:46.290Z,6.96
2018-12-22T10:05:15.511Z,6.96
2018-12-22T10:07:44.761Z,6.99
2018-12-22T10:10:17.549Z,6.99
2018-12-22T10:12:46.858Z,7.00
2018-12-22T10:15:15.915Z,7.00
2018-12-22T10:17:45.174Z,7.02
2018-12-22T10:20:14.655Z,7.02
2018-12-22T10:22:44.724Z,7.03
2018-12-22T10:25:13.939Z,7.03
2018-12-22T10:27:43.293Z,7.03
2018-12-22T10:30:16.157Z,7.05
2018-12-22T10:32:45.380Z,7.05
2018-12-22T10:35:29.395Z,7.04
2018-12-22T10:37:59.177Z,7.04
2018-12-22T10:40:28.368Z,7.05
2018-12-22T10:42:57.763Z,6.98
2018-12-22T10:45:26.968Z,7.03
2018-12-22T10:47:56.083Z,6.98
2018-12-22T10:50:25.239Z,7.04
2018-12-22T10:52:54.364Z,7.00
2018-12-22T10:55:23.557Z,7.04
2018-12-22T11:07:15.829Z,7.03
2018-12-22T11:09:45.161Z,7.02
2018-12-22T11:12:14.376Z,7.04
2018-12-22T11:17:44.974Z,7.13
2018-12-22T11:20:21.958Z,7.16
2018-12-22T11:22:51.324Z,7.18
2018-12-22T11:25:23.999Z,7.21
2018-12-22T11:27:53.274Z,7.24
2018-12-22T11:30:42.592Z,7.25
2018-12-22T11:33:11.719Z,7.24
2018-12-22T11:35:40.933Z,7.26
2018-12-22T11:38:10.090Z,7.28
2018-12-22T11:40:39.278Z,7.27
2018-12-22T11:43:08.426Z,7.24
2018-12-22T11:45:37.556Z,7.26
2018-12-22T11:49:27.819Z,7.26
2018-12-22T11:51:56.934Z,7.28
2018-12-22T11:54:26.142Z,7.28
2018-12-22T11:56:55.200Z,7.27
2018-12-22T11:59:24.353Z,7.32
2018-12-22T12:01:53.488Z,7.32
2018-12-22T12:04:22.641Z,7.37
2018-12-22T12:06:51.765Z,7.36
2018-12-22T12:09:20.887Z,7.39
2018-12-22T12:11:50.134Z,7.44
2018-12-22T12:14:19.330Z,7.48
2018-12-22T12:16:58.282Z,7.51
2018-12-22T12:19:30.663Z,7.55
2018-12-22T12:21:59.840Z,7.58
2018-12-22T12:24:29.225Z,7.63
2018-12-22T12:26:58.370Z,7.68
2018-12-22T12:29:27.466Z,7.70
2018-12-22T12:31:56.579Z,7.70
2018-12-22T12:34:25.723Z,7.69
2018-12-22T12:36:54.794Z,7.76
2018-12-22T12:39:24.047Z,7.80
2018-12-22T12:41:53.245Z,7.79
2018-12-22T12:44:22.493Z,7.80
2018-12-22T12:46:53.850Z,7.79
2018-12-22T12:49:23.626Z,7.79
2018-12-22T12:51:52.793Z,7.78
2018-12-22T12:54:22.735Z,7.78
2018-12-22T12:56:56.282Z,7.78
2018-12-22T12:59:27.155Z,7.78
2018-12-22T13:02:01.057Z,7.76
2018-12-22T13:04:27.735Z,7.76
2018-12-22T13:06:56.893Z,7.73
2018-12-22T13:09:26.049Z,7.74
2018-12-22T13:11:59.346Z,7.67
2018-12-22T13:14:28.460Z,7.63
2018-12-22T13:16:57.538Z,7.66
2018-12-22T13:19:26.749Z,7.66
2018-12-22T13:21:55.910Z,7.67
2018-12-22T13:24:25.188Z,7.62
2018-12-22T13:26:54.353Z,7.61
2018-12-22T13:29:23.434Z,7.60
2018-12-22T13:31:52.579Z,7.60
2018-12-22T13:34:21.753Z,7.60
2018-12-22T13:36:50.876Z,7.56
2018-12-22T13:39:26.944Z,7.50
2018-12-22T13:41:56.200Z,7.50
2018-12-22T13:44:25.276Z,7.60
2018-12-22T13:46:54.425Z,7.59
2018-12-22T13:49:23.608Z,7.55
2018-12-22T13:51:52.761Z,7.46
2018-12-22T13:54:25.090Z,7.52
2018-12-22T13:56:54.526Z,7.46
2018-12-22T13:59:23.731Z,7.39
2018-12-22T14:02:18.001Z,7.36
2018-12-22T14:04:41.977Z,7.31
2018-12-22T14:07:12.432Z,7.37
2018-12-22T14:09:41.813Z,7.33
2018-12-22T14:12:11.499Z,7.30
2018-12-22T14:14:42.409Z,7.28
2018-12-22T14:17:31.163Z,7.17
2018-12-22T14:20:07.909Z,7.12
2018-12-22T14:22:37.265Z,7.00
2018-12-22T14:25:12.796Z,6.92
2018-12-22T14:27:41.997Z,6.99
2018-12-22T14:30:12.183Z,6.93
2018-12-22T14:32:41.519Z,6.83
2018-12-22T14:35:29.303Z,6.97
2018-12-22T14:37:58.527Z,6.80
2018-12-22T14:40:27.586Z,6.83
2018-12-22T14:42:56.637Z,6.71
2018-12-22T14:45:25.771Z,6.87
2018-12-22T14:47:54.975Z,6.72
2018-12-22T14:50:24.118Z,6.66
2018-12-22T14:52:53.260Z,6.67
2018-12-22T14:55:22.534Z,6.67
2018-12-22T14:57:57.075Z,6.69
2018-12-22T15:00:26.117Z,6.61
2018-12-22T15:02:55.250Z,6.60
2018-12-22T15:05:24.463Z,6.57
2018-12-22T15:07:53.519Z,6.58
2018-12-22T15:10:22.647Z,6.48
2018-12-22T15:12:52.031Z,6.44
2018-12-22T15:15:21.108Z,6.39
2018-12-22T15:17:50.168Z,6.36
2018-12-22T15:20:22.873Z,6.46
2018-12-22T15:22:51.975Z,6.34
2018-12-22T15:25:21.148Z,6.39
2018-12-22T15:27:50.279Z,6.33
2018-12-22T15:30:19.377Z,6.31
2018-12-22T15:32:54.329Z,6.34
2018-12-22T15:35:19.691Z,6.27
2018-12-22T15:37:48.789Z,6.25
2018-12-22T15:40:17.936Z,6.22
2018-12-22T15:42:47.229Z,6.19
2018-12-22T15:45:16.485Z,6.21
2018-12-22T15:47:45.660Z,6.21
2018-12-22T15:50:18.510Z,6.27
2018-12-22T15:52:47.746Z,6.24
2018-12-22T15:55:16.967Z,6.23
2018-12-22T15:57:46.291Z,6.22
2018-12-22T16:00:15.532Z,6.21
2018-12-22T16:02:53.154Z,6.17
2018-12-22T16:05:17.068Z,6.19
2018-12-22T16:07:46.338Z,6.18
2018-12-22T16:10:16.081Z,6.19
2018-12-22T16:12:46.254Z,6.22
2018-12-22T16:15:18.799Z,6.24
2018-12-22T16:17:48.036Z,6.23
2018-12-22T16:20:17.093Z,6.23
2018-12-22T16:22:57.078Z,6.24
2018-12-22T16:25:29.923Z,6.30
2018-12-22T16:28:07.421Z,6.34
2018-12-22T16:30:42.387Z,6.35
2018-12-22T16:33:11.560Z,6.38
2018-12-22T16:35:40.781Z,6.40
2018-12-22T16:38:09.914Z,6.49
2018-12-22T16:40:39.125Z,6.47
2018-12-22T16:43:12.164Z,6.49
2018-12-22T16:45:45.634Z,6.51
2018-12-22T16:48:14.830Z,6.60
2018-12-22T16:50:46.117Z,6.69
2018-12-22T16:53:15.467Z,6.68
2018-12-22T16:55:44.634Z,6.59
2018-12-22T16:58:24.232Z,6.63
2018-12-22T17:01:07.325Z,6.71
2018-12-22T17:03:36.603Z,6.73
2018-12-22T17:06:08.415Z,6.67
2018-12-22T17:08:42.351Z,6.66
2018-12-22T17:11:43.930Z,6.70
2018-12-22T17:14:13.181Z,6.70
2018-12-22T17:16:43.064Z,6.70
2018-12-22T17:19:12.226Z,6.69
2018-12-22T17:21:55.300Z,6.70
2018-12-22T17:24:43.176Z,6.76
2018-12-22T17:27:12.563Z,6.75
2018-12-22T17:29:41.878Z,6.77
2018-12-22T17:32:11.170Z,6.82
2018-12-22T17:34:40.377Z,6.84
2018-12-22T17:37:09.445Z,6.81
2018-12-22T17:39:38.604Z,6.86
2018-12-22T17:42:07.936Z,6.88
2018-12-22T17:44:37.230Z,6.94
2018-12-22T17:47:06.345Z,6.95
2018-12-22T17:49:35.902Z,7.01
2018-12-22T17:52:04.990Z,7.01
2018-12-22T17:54:34.165Z,7.05
2018-12-22T17:57:03.379Z,7.05
2018-12-22T17:59:32.476Z,7.07
2018-12-22T18:02:03.104Z,7.07
2018-12-22T18:04:32.174Z,7.09
2018-12-22T18:07:01.431Z,7.12
2018-12-22T18:09:30.545Z,7.08
2018-12-22T18:11:59.752Z,7.07
2018-12-22T18:14:28.825Z,7.07
2018-12-22T18:16:57.983Z,7.09
2018-12-22T18:19:29.110Z,7.09
2018-12-22T18:21:58.362Z,7.12
2018-12-22T18:24:27.425Z,7.14
2018-12-22T18:26:56.530Z,7.14
2018-12-22T18:29:25.745Z,7.14
2018-12-22T18:31:55.057Z,7.13
2018-12-22T18:34:24.134Z,7.12
2018-12-22T18:36:54.155Z,7.13
2018-12-22T18:39:23.390Z,7.16
2018-12-22T18:41:52.707Z,7.15
2018-12-22T18:44:21.897Z,7.15
2018-12-22T18:46:50.995Z,7.16
2018-12-22T18:49:20.118Z,7.16
2018-12-22T18:51:49.388Z,7.18
2018-12-22T18:54:18.554Z,7.17
2018-12-22T18:56:47.910Z,7.19
2018-12-22T18:59:17.795Z,7.18
2018-12-22T19:01:47.226Z,7.17
2018-12-22T19:04:16.576Z,7.17
2018-12-22T19:06:45.796Z,7.19
2018-12-22T19:09:25.986Z,7.19
2018-12-22T19:11:56.829Z,7.20
2018-12-22T19:14:26.752Z,7.17
2018-12-22T19:17:10.968Z,7.15
2018-12-22T19:22:57.026Z,7.15
2018-12-22T19:25:27.216Z,7.18
2018-12-22T19:27:56.327Z,7.18
2018-12-22T19:30:25.577Z,7.20
2018-12-22T19:32:54.678Z,7.20
2018-12-22T19:35:24.132Z,7.21
2018-12-22T19:37:53.215Z,7.19
2018-12-22T19:40:22.313Z,7.20
2018-12-22T19:42:51.418Z,7.19
2018-12-22T19:45:20.528Z,7.22
2018-12-22T19:47:49.623Z,7.19
2018-12-22T19:50:19.043Z,7.21
2018-12-22T19:52:48.244Z,7.22
2018-12-22T19:55:17.336Z,7.20
2018-12-22T19:57:46.866Z,7.19
2018-12-22T20:00:15.988Z,7.19
2018-12-22T20:02:45.192Z,7.21
2018-12-22T20:05:14.788Z,7.16
2018-12-22T20:07:44.710Z,7.19
2018-12-22T20:10:14.964Z,7.19
2018-12-22T20:12:44.152Z,7.19
2018-12-22T20:15:13.284Z,7.16
2018-12-22T20:17:42.418Z,7.21
2018-12-22T20:20:11.646Z,7.21
2018-12-22T20:22:40.721Z,7.22
2018-12-22T20:25:09.863Z,7.19
2018-12-22T20:27:38.976Z,7.21
2018-12-22T20:30:08.438Z,7.22
2018-12-22T20:32:37.625Z,7.22
2018-12-22T20:35:06.884Z,7.19
2018-12-22T20:37:35.987Z,7.21
2018-12-22T20:40:06.046Z,7.20
2018-12-22T20:42:35.203Z,7.21
2018-12-22T20:45:04.445Z,7.21
2018-12-22T20:47:33.618Z,7.21
2018-12-22T20:50:02.760Z,7.23
2018-12-22T20:52:31.946Z,7.22
2018-12-22T20:55:01.119Z,7.22
2018-12-22T20:57:30.332Z,7.22
2018-12-22T20:59:59.584Z,7.22
2018-12-22T21:02:28.734Z,7.20
2018-12-22T21:04:57.831Z,7.21
2018-12-22T21:07:26.940Z,7.22
2018-12-22T21:09:56.173Z,7.17
2018-12-22T21:12:25.248Z,7.14
2018-12-22T21:14:54.325Z,7.16
2018-12-22T21:17:23.459Z,7.20
2018-12-22T21:19:53.010Z,7.13
2018-12-22T21:22:22.095Z,7.14
2018-12-22T21:24:51.217Z,7.10
2018-12-22T21:27:20.423Z,7.12
2018-12-22T21:29:49.822Z,7.09
2018-12-22T21:32:19.772Z,7.04
2018-12-22T21:34:49.887Z,7.06
2018-12-22T21:37:20.143Z,7.09
2018-12-22T21:39:50.004Z,7.02
2018-12-22T21:42:20.088Z,7.00
2018-12-22T21:44:50.525Z,7.02
2018-12-22T21:47:20.512Z,7.02
2018-12-22T21:49:50.349Z,7.02
2018-12-22T21:52:19.587Z,6.97
2018-12-22T21:54:48.694Z,7.00
2018-12-22T21:57:17.738Z,6.99
2018-12-22T21:59:46.913Z,6.90
2018-12-22T22:02:16.188Z,6.89
2018-12-22T22:04:45.316Z,6.92
2018-12-22T22:07:14.373Z,6.90
2018-12-22T22:09:43.632Z,6.92
2018-12-22T22:12:12.695Z,6.87
2018-12-22T22:14:42.174Z,6.86
2018-12-22T22:17:11.355Z,6.83
2018-12-22T22:19:40.519Z,6.82
2018-12-22T22:22:09.608Z,6.83
2018-12-22T22:24:38.703Z,6.84
2018-12-22T22:27:08.227Z,6.76
2018-12-22T22:29:37.586Z,6.80
2018-12-22T22:32:06.679Z,6.81
2018-12-22T22:34:35.725Z,6.80
2018-12-22T22:37:04.863Z,6.77
2018-12-22T22:39:33.937Z,6.75
2018-12-22T22:42:03.263Z,6.77
2018-12-22T22:44:32.349Z,6.77
2018-12-22T22:47:01.431Z,6.74
2018-12-22T22:49:30.477Z,6.75
2018-12-22T22:51:59.577Z,6.71
2018-12-22T22:54:28.719Z,6.72
2018-12-22T22:56:59.388Z,6.70
2018-12-22T22:59:28.723Z,6.71
2018-12-22T23:01:57.947Z,6.70
2018-12-22T23:04:28.257Z,6.68
2018-12-22T23:06:58.371Z,6.68
2018-12-22T23:09:27.572Z,6.64
2018-12-22T23:11:57.107Z,6.66
2018-12-22T23:14:26.197Z,6.63
2018-12-22T23:16:55.328Z,6.63
2018-12-22T23:19:24.399Z,6.66
2018-12-22T23:21:53.612Z,6.67
2018-12-22T23:24:22.852Z,6.65
2018-12-22T23:26:51.923Z,6.61
2018-12-22T23:29:21.127Z,6.61
2018-12-22T23:31:50.276Z,6.62
2018-12-22T23:34:19.311Z,6.61
2018-12-22T23:36:48.472Z,6.56
2018-12-22T23:39:17.622Z,6.57
2018-12-22T23:41:46.983Z,6.56
2018-12-22T23:44:16.129Z,6.57
2018-12-22T23:46:45.294Z,6.52
2018-12-22T23:49:14.411Z,6.47
2018-12-22T23:51:43.667Z,6.44
2018-12-22T23:54:12.792Z,6.42
2018-12-22T23:56:41.988Z,6.36
2018-12-22T23:59:11.054Z,6.32
